Metar z połowy godziny Komunikat METAR ze strony awiacja.imgw.pl Metar G00 EPLB METAR EPLB 261730Z 26014KT 9999 DRSN SCT018 SCT023 00/M02 Q1007 R25/29//95 =